createdAt,value
2018-05-07T00:01:08.682Z,99343.24
2018-05-07T00:03:37.141Z,99332.78
2018-05-07T00:06:05.748Z,99335.20
2018-05-07T00:08:34.164Z,99336.00
2018-05-07T00:11:02.650Z,99325.83
2018-05-07T00:13:31.160Z,99328.58
2018-05-07T00:15:59.673Z,99313.01
2018-05-07T00:18:28.152Z,99326.56
2018-05-07T00:20:56.669Z,99324.19
2018-05-07T00:23:25.126Z,99324.71
2018-05-07T00:25:53.640Z,99324.30
2018-05-07T00:28:22.127Z,99322.20
2018-05-07T00:30:50.621Z,99329.45
2018-05-07T00:33:19.206Z,99324.89
2018-05-07T00:35:47.645Z,99325.64
2018-05-07T00:38:16.114Z,99321.93
2018-05-07T00:40:44.621Z,99324.52
2018-05-07T00:43:13.153Z,99306.22
2018-05-07T00:45:41.617Z,99319.30
2018-05-07T00:48:10.057Z,99326.45
2018-05-07T00:50:38.538Z,99320.64
2018-05-07T00:53:07.043Z,99320.47
2018-05-07T00:55:35.552Z,99325.44
2018-05-07T00:58:04.059Z,99317.38
2018-05-07T01:00:32.569Z,99319.88
2018-05-07T01:03:01.089Z,99328.28
2018-05-07T01:05:29.610Z,99313.09
2018-05-07T01:07:58.088Z,99334.12
2018-05-07T01:10:26.598Z,99326.80
2018-05-07T01:12:55.068Z,99330.36
2018-05-07T01:15:23.556Z,99330.86
2018-05-07T01:17:52.029Z,99332.77
2018-05-07T01:20:20.585Z,99327.44
2018-05-07T01:22:49.029Z,99333.14
2018-05-07T01:25:17.721Z,99319.59
2018-05-07T01:27:46.237Z,99331.33
2018-05-07T01:30:14.764Z,99332.53
2018-05-07T01:32:43.248Z,99333.33
2018-05-07T01:35:11.755Z,99334.47
2018-05-07T01:37:40.197Z,99332.42
2018-05-07T01:40:08.728Z,99338.34
2018-05-07T01:42:37.213Z,99332.41
2018-05-07T01:45:05.734Z,99343.16
2018-05-07T01:47:34.224Z,99346.48
2018-05-07T01:50:02.732Z,99343.34
2018-05-07T01:52:31.192Z,99343.50
2018-05-07T01:54:59.688Z,99344.71
2018-05-07T01:57:28.145Z,99349.53
2018-05-07T01:59:56.637Z,99352.20
2018-05-07T02:02:25.133Z,99352.75
2018-05-07T02:04:53.584Z,99340.17
2018-05-07T02:07:22.076Z,99353.06
2018-05-07T02:09:50.568Z,99354.94
2018-05-07T02:12:19.029Z,99352.75
2018-05-07T02:14:47.570Z,99332.30
2018-05-07T02:17:16.016Z,99362.97
2018-05-07T02:19:44.524Z,99358.88
2018-05-07T02:22:13.016Z,99371.75
2018-05-07T02:24:41.460Z,99384.16
2018-05-07T02:27:09.949Z,99380.22
2018-05-07T02:29:38.489Z,99387.86
2018-05-07T02:32:07.012Z,99382.44
2018-05-07T02:34:35.461Z,99387.50
2018-05-07T02:37:03.941Z,99392.67
2018-05-07T02:39:32.438Z,99396.83
2018-05-07T02:42:00.928Z,99390.33
2018-05-07T02:44:29.434Z,99402.08
2018-05-07T02:46:57.935Z,99402.23
2018-05-07T02:49:26.403Z,99403.61
2018-05-07T02:51:54.936Z,99420.55
2018-05-07T02:54:23.404Z,99417.00
2018-05-07T02:56:51.912Z,99416.55
2018-05-07T02:59:20.412Z,99417.56
2018-05-07T03:01:48.856Z,99408.31
2018-05-07T03:04:17.320Z,99395.87
2018-05-07T03:06:45.829Z,99407.76
2018-05-07T03:09:14.299Z,99411.59
2018-05-07T03:11:42.797Z,99415.46
2018-05-07T03:14:11.265Z,99419.25
2018-05-07T03:16:39.768Z,99415.75
2018-05-07T03:19:08.275Z,99414.73
2018-05-07T03:21:36.746Z,99415.02
2018-05-07T03:24:05.259Z,99416.34
2018-05-07T03:26:33.760Z,99402.19
2018-05-07T03:29:02.261Z,99417.31
2018-05-07T03:31:30.717Z,99414.89
2018-05-07T03:33:59.204Z,99412.16
2018-05-07T03:36:27.684Z,99413.87
2018-05-07T03:38:56.132Z,99421.05
2018-05-07T03:41:24.624Z,99421.02
2018-05-07T03:43:53.980Z,99417.30
2018-05-07T03:46:22.512Z,99411.34
2018-05-07T03:48:51.016Z,99423.76
2018-05-07T03:51:19.505Z,99405.33
2018-05-07T03:53:47.990Z,99418.88
2018-05-07T03:56:16.454Z,99422.95
2018-05-07T03:58:44.951Z,99427.16
2018-05-07T04:01:13.412Z,99427.44
2018-05-07T04:03:42.061Z,99432.80
2018-05-07T04:06:10.528Z,99433.23
2018-05-07T04:08:38.980Z,99423.24
2018-05-07T04:11:07.473Z,99434.97
2018-05-07T04:13:35.945Z,99436.26
2018-05-07T04:16:04.411Z,99432.15
2018-05-07T04:18:44.677Z,99425.55
2018-05-07T04:21:14.060Z,99430.75
2018-05-07T04:23:54.356Z,99429.53
2018-05-07T04:26:22.872Z,99440.33
2018-05-07T04:28:51.375Z,99438.34
2018-05-07T04:31:19.868Z,99444.12
2018-05-07T04:33:48.453Z,99442.30
2018-05-07T04:36:16.952Z,99433.14
2018-05-07T04:38:45.441Z,99444.91
2018-05-07T04:41:13.988Z,99442.25
2018-05-07T04:43:42.476Z,99433.05
2018-05-07T04:46:10.968Z,99446.41
2018-05-07T04:48:39.450Z,99445.64
2018-05-07T04:51:08.045Z,99460.06
2018-05-07T04:53:36.504Z,99447.92
2018-05-07T04:56:04.964Z,99452.37
2018-05-07T04:58:33.465Z,99452.86
2018-05-07T05:01:01.980Z,99452.18
2018-05-07T05:03:30.436Z,99459.76
2018-05-07T05:05:58.924Z,99453.55
2018-05-07T05:08:27.390Z,99448.59
2018-05-07T05:10:55.887Z,99462.90
2018-05-07T05:13:24.361Z,99463.94
2018-05-07T05:15:52.877Z,99450.00
2018-05-07T05:18:21.369Z,99457.12
2018-05-07T05:20:49.828Z,99458.42
2018-05-07T05:23:18.324Z,99456.09
2018-05-07T05:25:46.819Z,99459.98
2018-05-07T05:28:15.329Z,99461.92
2018-05-07T05:30:43.822Z,99470.23
2018-05-07T05:33:12.279Z,99465.25
2018-05-07T05:35:40.823Z,99472.77
2018-05-07T05:38:09.318Z,99483.80
2018-05-07T05:40:37.808Z,99486.95
2018-05-07T05:43:06.301Z,99486.32
2018-05-07T05:45:34.769Z,99490.53
2018-05-07T05:48:03.257Z,99496.81
2018-05-07T05:50:31.726Z,99496.29
2018-05-07T05:53:00.192Z,99494.93
2018-05-07T05:55:28.680Z,99501.00
2018-05-07T05:57:57.149Z,99506.50
2018-05-07T06:00:25.637Z,99503.63
2018-05-07T06:02:54.096Z,99500.66
2018-05-07T06:05:22.589Z,99512.31
2018-05-07T06:07:51.088Z,99511.45
2018-05-07T06:10:19.552Z,99511.84
2018-05-07T06:12:48.052Z,99504.02
2018-05-07T06:15:16.541Z,99487.86
2018-05-07T06:17:45.059Z,99498.12
2018-05-07T06:20:13.512Z,99502.16
2018-05-07T06:22:42.048Z,99496.46
2018-05-07T06:25:10.544Z,99504.25
2018-05-07T06:27:39.002Z,99499.36
2018-05-07T06:30:07.489Z,99507.09
2018-05-07T06:32:35.930Z,99519.13
2018-05-07T06:35:04.461Z,99519.63
2018-05-07T06:37:32.944Z,99509.59
2018-05-07T06:40:01.480Z,99520.34
2018-05-07T06:42:30.004Z,99524.12
2018-05-07T06:44:58.553Z,99527.49
2018-05-07T06:47:27.024Z,99539.42
2018-05-07T06:49:55.545Z,99540.10
2018-05-07T06:52:24.072Z,99535.06
2018-05-07T06:54:52.528Z,99532.62
2018-05-07T06:57:21.028Z,99528.96
2018-05-07T06:59:49.550Z,99520.19
2018-05-07T07:02:18.046Z,99520.08
2018-05-07T07:04:46.509Z,99532.06
2018-05-07T07:07:15.028Z,99537.17
2018-05-07T07:09:43.515Z,99544.88
2018-05-07T07:12:11.973Z,99556.03
2018-05-07T07:14:40.461Z,99552.37
2018-05-07T07:17:08.964Z,99551.11
2018-05-07T07:19:37.457Z,99546.92
2018-05-07T07:22:05.979Z,99541.14
2018-05-07T07:24:34.452Z,99530.95
2018-05-07T07:27:02.935Z,99533.72
2018-05-07T07:29:31.437Z,99529.42
2018-05-07T07:31:59.937Z,99520.35
2018-05-07T07:34:28.405Z,99531.58
2018-05-07T07:36:56.913Z,99527.58
2018-05-07T07:39:25.388Z,99536.52
2018-05-07T07:41:53.883Z,99536.56
2018-05-07T07:44:22.340Z,99548.99
2018-05-07T07:46:50.840Z,99544.23
2018-05-07T07:49:19.317Z,99555.62
2018-05-07T07:51:47.780Z,99554.69
2018-05-07T07:54:16.300Z,99544.03
2018-05-07T07:56:44.763Z,99552.45
2018-05-07T07:59:13.272Z,99544.81
2018-05-07T08:01:41.749Z,99535.85
2018-05-07T08:04:10.322Z,99546.27
2018-05-07T08:06:38.807Z,99534.96
2018-05-07T08:09:07.333Z,99558.05
2018-05-07T08:11:35.786Z,99552.55
2018-05-07T08:14:04.335Z,99554.41
2018-05-07T08:16:32.781Z,99551.80
2018-05-07T08:19:01.229Z,99554.42
2018-05-07T08:21:29.724Z,99547.06
2018-05-07T08:23:58.185Z,99552.50
2018-05-07T08:26:26.676Z,99547.30
2018-05-07T08:28:55.156Z,99542.52
2018-05-07T08:31:23.657Z,99543.81
2018-05-07T08:33:52.126Z,99537.94
2018-05-07T08:36:20.621Z,99533.11
2018-05-07T08:38:49.116Z,99543.07
2018-05-07T08:41:17.613Z,99539.30
2018-05-07T08:43:46.068Z,99543.27
2018-05-07T08:46:14.550Z,99531.95
2018-05-07T08:48:43.032Z,99534.15
2018-05-07T08:51:11.522Z,99520.85
2018-05-07T08:53:40.146Z,99531.06
2018-05-07T08:56:08.632Z,99532.86
2018-05-07T08:58:37.108Z,99516.94
2018-05-07T09:01:05.593Z,99534.41
2018-05-07T09:03:34.112Z,99526.17
2018-05-07T09:06:02.573Z,99519.56
2018-05-07T09:08:31.028Z,99505.94
2018-05-07T09:10:59.520Z,99519.30
2018-05-07T09:13:28.031Z,99508.25
2018-05-07T09:15:56.535Z,99501.11
2018-05-07T09:18:24.999Z,99506.37
2018-05-07T09:20:53.510Z,99509.18
2018-05-07T09:23:22.053Z,99507.86
2018-05-07T09:25:50.572Z,99505.47
2018-05-07T09:28:19.042Z,99509.42
2018-05-07T09:30:47.589Z,99507.28
2018-05-07T09:33:16.034Z,99505.15
2018-05-07T09:35:44.479Z,99511.30
2018-05-07T09:38:12.950Z,99512.21
2018-05-07T09:40:41.415Z,99508.94
2018-05-07T09:43:09.931Z,99514.96
2018-05-07T09:45:38.448Z,99499.98
2018-05-07T09:48:06.881Z,99511.97
2018-05-07T09:50:35.364Z,99505.69
2018-05-07T09:53:03.856Z,99501.55
2018-05-07T09:55:32.336Z,99494.28
2018-05-07T09:58:04.620Z,99507.23
2018-05-07T10:00:37.724Z,99498.46
2018-05-07T10:03:06.267Z,99503.52
2018-05-07T10:05:34.792Z,99501.73
2018-05-07T10:08:03.290Z,99489.73
2018-05-07T10:10:31.770Z,99485.28
2018-05-07T10:13:00.201Z,99486.12
2018-05-07T10:15:28.718Z,99484.16
2018-05-07T10:17:57.188Z,99491.44
2018-05-07T10:20:25.676Z,99487.39
2018-05-07T10:22:54.198Z,99483.56
2018-05-07T10:25:22.659Z,99492.02
2018-05-07T10:27:51.196Z,99486.63
2018-05-07T10:30:19.700Z,99487.98
2018-05-07T10:32:48.184Z,99482.33
2018-05-07T10:35:16.735Z,99480.84
2018-05-07T10:37:45.203Z,99476.50
2018-05-07T10:40:13.664Z,99474.87
2018-05-07T10:42:42.338Z,99472.58
2018-05-07T10:45:10.744Z,99468.14
2018-05-07T10:47:39.198Z,99463.22
2018-05-07T10:50:07.704Z,99457.28
2018-05-07T10:52:36.172Z,99462.45
2018-05-07T10:55:04.666Z,99460.93
2018-05-07T10:57:33.157Z,99465.34
2018-05-07T11:00:01.694Z,99459.40
2018-05-07T11:02:30.172Z,99456.00
2018-05-07T11:04:58.657Z,99455.86
2018-05-07T11:07:27.143Z,99444.33
2018-05-07T11:09:55.644Z,99440.91
2018-05-07T11:12:24.090Z,99438.55
2018-05-07T11:14:52.596Z,99433.90
2018-05-07T11:17:21.061Z,99443.27
2018-05-07T11:19:49.539Z,99442.47
2018-05-07T11:22:18.054Z,99447.31
2018-05-07T11:24:46.534Z,99422.69
2018-05-07T11:27:15.016Z,99434.83
2018-05-07T11:29:43.476Z,99433.36
2018-05-07T11:32:12.016Z,99424.34
2018-05-07T11:34:40.460Z,99423.19
2018-05-07T11:37:08.928Z,99421.59
2018-05-07T11:39:37.368Z,99407.95
2018-05-07T11:42:05.867Z,99410.31
2018-05-07T11:44:34.353Z,99403.69
2018-05-07T11:47:02.844Z,99403.63
2018-05-07T11:49:31.356Z,99394.16
2018-05-07T11:51:59.845Z,99390.80
2018-05-07T11:54:28.334Z,99390.73
2018-05-07T11:56:56.856Z,99385.53
2018-05-07T11:59:25.336Z,99375.37
2018-05-07T12:01:53.836Z,99382.63
2018-05-07T12:04:22.302Z,99373.72
2018-05-07T12:06:50.784Z,99373.04
2018-05-07T12:09:19.284Z,99374.33
2018-05-07T12:11:47.739Z,99371.59
2018-05-07T12:14:16.220Z,99369.23
2018-05-07T12:16:44.669Z,99359.41
2018-05-07T12:19:13.157Z,99351.02
2018-05-07T12:21:41.612Z,99336.20
2018-05-07T12:24:10.127Z,99337.86
2018-05-07T12:26:38.644Z,99339.10
2018-05-07T12:29:07.108Z,99330.20
2018-05-07T12:31:35.713Z,99338.98
2018-05-07T12:34:04.085Z,99325.92
2018-05-07T12:36:32.561Z,99324.67
2018-05-07T12:39:01.013Z,99320.61
2018-05-07T12:41:29.516Z,99321.31
2018-05-07T12:43:57.997Z,99325.44
2018-05-07T12:46:26.477Z,99312.88
2018-05-07T12:48:54.968Z,99314.91
2018-05-07T12:51:23.432Z,99309.86
2018-05-07T12:53:51.933Z,99308.90
2018-05-07T12:56:20.420Z,99307.67
2018-05-07T12:58:49.036Z,99304.20
2018-05-07T13:01:17.521Z,99302.25
2018-05-07T13:03:45.972Z,99295.69
2018-05-07T13:06:14.456Z,99298.03
2018-05-07T13:08:42.969Z,99294.70
2018-05-07T13:11:11.412Z,99292.39
2018-05-07T13:13:39.899Z,99289.50
2018-05-07T13:16:08.385Z,99290.30
2018-05-07T13:18:36.892Z,99287.09
2018-05-07T13:21:05.352Z,99281.27
2018-05-07T13:23:33.889Z,99281.16
2018-05-07T13:26:02.352Z,99274.53
2018-05-07T13:28:30.844Z,99268.23
2018-05-07T13:30:59.380Z,99269.03
2018-05-07T13:33:27.875Z,99261.36
2018-05-07T13:35:56.397Z,99253.32
2018-05-07T13:38:24.896Z,99264.17
2018-05-07T13:40:53.365Z,99260.88
2018-05-07T13:43:21.860Z,99251.38
2018-05-07T13:45:50.329Z,99236.79
2018-05-07T13:48:18.848Z,99253.66
2018-05-07T13:50:47.305Z,99244.25
2018-05-07T13:53:15.741Z,99255.52
2018-05-07T13:55:44.238Z,99245.84
2018-05-07T13:58:12.740Z,99233.34
2018-05-07T14:00:41.237Z,99251.56
2018-05-07T14:03:09.705Z,99249.42
2018-05-07T14:05:38.205Z,99243.73
2018-05-07T14:08:06.697Z,99233.09
2018-05-07T14:10:35.201Z,99251.55
2018-05-07T14:13:03.652Z,99249.75
2018-05-07T14:15:32.115Z,99247.92
2018-05-07T14:18:00.629Z,99237.98
2018-05-07T14:20:29.135Z,99242.61
2018-05-07T14:22:57.640Z,99244.59
2018-05-07T14:25:26.136Z,99230.55
2018-05-07T14:27:54.653Z,99232.77
2018-05-07T14:30:23.080Z,99226.58
2018-05-07T14:32:51.529Z,99235.00
2018-05-07T14:35:20.054Z,99226.69
2018-05-07T14:37:48.492Z,99226.84
2018-05-07T14:40:17.016Z,99222.77
2018-05-07T14:42:45.520Z,99221.42
2018-05-07T14:45:14.037Z,99210.09
2018-05-07T14:47:42.496Z,99221.58
2018-05-07T14:50:10.982Z,99215.84
2018-05-07T14:52:39.465Z,99211.30
2018-05-07T14:55:07.977Z,99204.78
2018-05-07T14:57:36.440Z,99218.06
2018-05-07T15:00:04.952Z,99212.27
2018-05-07T15:02:33.468Z,99213.12
2018-05-07T15:05:01.906Z,99206.59
2018-05-07T15:07:30.364Z,99208.80
2018-05-07T15:09:58.872Z,99207.20
2018-05-07T15:12:27.328Z,99203.09
2018-05-07T15:14:55.816Z,99204.05
2018-05-07T15:17:24.271Z,99203.41
2018-05-07T15:19:52.753Z,99195.73
2018-05-07T15:22:21.248Z,99195.41
2018-05-07T15:24:49.758Z,99193.48
2018-05-07T15:27:18.263Z,99196.35
2018-05-07T15:29:46.771Z,99190.07
2018-05-07T15:32:15.254Z,99183.46
2018-05-07T15:34:43.755Z,99173.08
2018-05-07T15:37:12.247Z,99183.71
2018-05-07T15:39:40.760Z,99189.33
2018-05-07T15:42:09.269Z,99186.03
2018-05-07T15:44:37.725Z,99183.85
2018-05-07T15:47:06.240Z,99181.52
2018-05-07T15:49:34.696Z,99179.09
2018-05-07T15:52:03.200Z,99179.50
2018-05-07T15:54:31.704Z,99176.31
2018-05-07T15:57:00.208Z,99165.73
2018-05-07T15:59:28.672Z,99172.48
2018-05-07T16:01:57.136Z,99173.13
2018-05-07T16:04:25.646Z,99173.75
2018-05-07T16:06:54.143Z,99166.27
2018-05-07T16:09:22.629Z,99165.40
2018-05-07T16:11:51.117Z,99169.65
2018-05-07T16:14:19.581Z,99170.57
2018-05-07T16:16:48.096Z,99166.53
2018-05-07T16:19:16.600Z,99170.42
2018-05-07T16:21:45.209Z,99172.54
2018-05-07T16:24:13.604Z,99174.45
2018-05-07T16:26:42.099Z,99173.57
2018-05-07T16:29:10.570Z,99166.83
2018-05-07T16:31:39.073Z,99172.97
2018-05-07T16:34:07.529Z,99170.84
2018-05-07T16:36:36.004Z,99174.47
2018-05-07T16:39:04.549Z,99169.84
2018-05-07T16:41:33.008Z,99165.28
2018-05-07T16:44:01.456Z,99170.16
2018-05-07T16:46:30.005Z,99177.26
2018-05-07T16:48:58.558Z,99175.41
2018-05-07T16:51:27.036Z,99179.66
2018-05-07T16:53:55.493Z,99180.17
2018-05-07T16:56:23.984Z,99182.91
2018-05-07T16:58:52.481Z,99180.12
2018-05-07T17:01:21.007Z,99185.63
2018-05-07T17:03:49.504Z,99179.05
2018-05-07T17:06:17.977Z,99176.61
2018-05-07T17:08:46.495Z,99186.48
2018-05-07T17:11:14.985Z,99189.17
2018-05-07T17:13:43.491Z,99187.69
2018-05-07T17:16:11.953Z,99173.59
2018-05-07T17:18:40.440Z,99183.39
2018-05-07T17:21:08.939Z,99184.33
2018-05-07T17:23:37.444Z,99181.80
2018-05-07T17:26:05.898Z,99182.78
2018-05-07T17:28:34.376Z,99175.67
2018-05-07T17:31:02.886Z,99185.20
2018-05-07T17:33:31.386Z,99183.82
2018-05-07T17:35:59.894Z,99194.50
2018-05-07T17:38:28.357Z,99199.89
2018-05-07T17:40:56.871Z,99202.78
2018-05-07T17:43:25.369Z,99198.28
2018-05-07T17:46:05.500Z,99205.12
2018-05-07T17:48:45.626Z,99210.74
2018-05-07T17:51:14.120Z,99202.48
2018-05-07T17:53:42.608Z,99204.55
2018-05-07T17:56:11.225Z,99205.22
2018-05-07T17:58:39.633Z,99206.42
2018-05-07T18:01:08.085Z,99211.23
2018-05-07T18:03:36.599Z,99217.09
2018-05-07T18:06:05.095Z,99216.84
2018-05-07T18:08:33.538Z,99221.48
2018-05-07T18:11:02.044Z,99215.33
2018-05-07T18:13:30.505Z,99217.12
2018-05-07T18:15:58.980Z,99217.67
2018-05-07T18:18:27.458Z,99220.20
2018-05-07T18:20:55.946Z,99219.45
2018-05-07T18:23:24.432Z,99211.36
2018-05-07T18:25:52.932Z,99216.87
2018-05-07T18:28:21.384Z,99216.70
2018-05-07T18:30:49.888Z,99214.44
2018-05-07T18:33:18.350Z,99213.29
2018-05-07T18:35:46.845Z,99217.51
2018-05-07T18:38:15.328Z,99220.67
2018-05-07T18:40:43.772Z,99226.33
2018-05-07T18:43:12.245Z,99225.34
2018-05-07T18:45:40.733Z,99224.19
2018-05-07T18:48:09.231Z,99223.70
2018-05-07T18:50:37.696Z,99227.52
2018-05-07T18:53:06.148Z,99229.92
2018-05-07T18:55:34.680Z,99230.30
2018-05-07T18:58:03.182Z,99239.85
2018-05-07T19:00:31.693Z,99245.30
2018-05-07T19:03:00.184Z,99251.74
2018-05-07T19:05:28.660Z,99248.39
2018-05-07T19:07:57.160Z,99246.22
2018-05-07T19:10:25.613Z,99239.72
2018-05-07T19:12:54.117Z,99232.64
2018-05-07T19:15:22.592Z,99227.53
2018-05-07T19:17:51.113Z,99234.20
2018-05-07T19:20:19.614Z,99242.85
2018-05-07T19:22:48.062Z,99243.53
2018-05-07T19:25:16.585Z,99227.87
2018-05-07T19:27:45.053Z,99239.19
2018-05-07T19:30:13.556Z,99244.41
2018-05-07T19:32:42.037Z,99250.45
2018-05-07T19:35:10.518Z,99232.88
2018-05-07T19:37:38.986Z,99245.88
2018-05-07T19:40:07.508Z,99247.73
2018-05-07T19:42:35.982Z,99249.42
2018-05-07T19:45:04.501Z,99258.45
2018-05-07T19:47:32.971Z,99250.02
2018-05-07T19:50:01.442Z,99255.13
2018-05-07T19:52:29.980Z,99250.55
2018-05-07T19:54:58.558Z,99247.22
2018-05-07T19:57:26.993Z,99239.80
2018-05-07T19:59:55.489Z,99243.91
2018-05-07T20:02:23.997Z,99252.06
2018-05-07T20:04:52.469Z,99255.09
2018-05-07T20:07:20.972Z,99247.27
2018-05-07T20:09:49.445Z,99251.69
2018-05-07T20:12:18.020Z,99247.17
2018-05-07T20:14:46.524Z,99239.63
2018-05-07T20:17:15.002Z,99250.80
2018-05-07T20:19:43.512Z,99248.80
2018-05-07T20:22:11.988Z,99247.55
2018-05-07T20:24:40.494Z,99248.43
2018-05-07T20:27:08.952Z,99250.92
2018-05-07T20:29:37.436Z,99244.64
2018-05-07T20:32:05.896Z,99252.13
2018-05-07T20:34:34.398Z,99239.67
2018-05-07T20:37:02.845Z,99252.70
2018-05-07T20:39:31.328Z,99259.19
2018-05-07T20:41:59.769Z,99255.81
2018-05-07T20:44:28.268Z,99252.30
2018-05-07T20:46:56.756Z,99254.03
2018-05-07T20:49:25.207Z,99252.91
2018-05-07T20:51:53.695Z,99251.53
2018-05-07T20:54:22.190Z,99254.60
2018-05-07T20:56:50.657Z,99250.97
2018-05-07T20:59:19.171Z,99251.03
2018-05-07T21:01:47.705Z,99245.53
2018-05-07T21:04:16.192Z,99246.56
2018-05-07T21:06:44.639Z,99246.58
2018-05-07T21:09:13.148Z,99240.05
2018-05-07T21:11:41.646Z,99232.72
2018-05-07T21:14:10.113Z,99231.03
2018-05-07T21:16:38.615Z,99231.83
2018-05-07T21:19:07.097Z,99234.28
2018-05-07T21:21:35.610Z,99232.69
2018-05-07T21:24:04.080Z,99225.08
2018-05-07T21:26:32.614Z,99231.72
2018-05-07T21:29:01.069Z,99232.53
2018-05-07T21:31:29.599Z,99227.95
2018-05-07T21:33:58.064Z,99214.47
2018-05-07T21:36:26.513Z,99229.84
2018-05-07T21:38:54.996Z,99228.06
2018-05-07T21:41:23.461Z,99232.94
2018-05-07T21:43:51.957Z,99221.33
2018-05-07T21:46:20.465Z,99224.61
2018-05-07T21:48:48.952Z,99226.26
2018-05-07T21:51:17.448Z,99223.57
2018-05-07T21:53:45.908Z,99229.73
2018-05-07T21:56:14.401Z,99228.41
2018-05-07T21:58:42.870Z,99227.70
2018-05-07T22:01:11.320Z,99224.45
2018-05-07T22:03:39.815Z,99206.44
2018-05-07T22:06:08.320Z,99182.60
2018-05-07T22:08:36.786Z,99203.22
2018-05-07T22:11:05.289Z,99202.09
2018-05-07T22:13:33.736Z,99202.14
2018-05-07T22:16:02.199Z,99190.65
2018-05-07T22:18:30.685Z,99195.17
2018-05-07T22:20:59.123Z,99195.86
2018-05-07T22:23:27.611Z,99188.76
2018-05-07T22:25:56.081Z,99188.44
2018-05-07T22:28:24.598Z,99184.72
2018-05-07T22:30:53.060Z,99187.59
2018-05-07T22:33:21.582Z,99181.19
2018-05-07T22:35:50.088Z,99179.97
2018-05-07T22:38:18.567Z,99177.06
2018-05-07T22:40:47.050Z,99173.89
2018-05-07T22:43:15.496Z,99169.26
2018-05-07T22:45:44.017Z,99166.45
2018-05-07T22:48:12.538Z,99155.89
2018-05-07T22:50:41.025Z,99167.75
2018-05-07T22:53:09.521Z,99164.00
2018-05-07T22:55:38.021Z,99162.78
2018-05-07T22:58:06.480Z,99166.73
2018-05-07T23:00:34.984Z,99164.23
2018-05-07T23:03:03.594Z,99156.41
2018-05-07T23:05:32.151Z,99152.72
2018-05-07T23:08:00.608Z,99154.91
2018-05-07T23:10:29.121Z,99155.41
2018-05-07T23:12:57.620Z,99155.05
2018-05-07T23:15:26.116Z,99153.00
2018-05-07T23:17:54.604Z,99154.48
2018-05-07T23:20:23.096Z,99155.70
2018-05-07T23:22:51.593Z,99161.63
2018-05-07T23:25:20.071Z,99155.87
2018-05-07T23:27:48.581Z,99162.37
2018-05-07T23:30:17.032Z,99156.88
2018-05-07T23:32:45.525Z,99157.23
2018-05-07T23:35:13.988Z,99160.94
2018-05-07T23:37:42.505Z,99165.44
2018-05-07T23:40:11.017Z,99172.34
2018-05-07T23:42:39.468Z,99168.00
2018-05-07T23:45:07.965Z,99170.23
2018-05-07T23:47:36.448Z,99167.47
2018-05-07T23:50:04.933Z,99161.89
2018-05-07T23:52:33.493Z,99173.47
2018-05-07T23:55:01.970Z,99168.09
2018-05-07T23:57:30.474Z,99164.48
2018-05-07T23:59:58.975Z,99163.39
